首页
METAR-TAF:

METAR-TAF

机场 :

马斯特里赫特亚琛机场

马斯特里赫特 亚琛, 荷兰

纬度: 50-55N, 经度: 005-47E, 海拔: 114米

当前天气观测

该预报发布于20分钟前的03:55 UTC
风速7节,风向北转东北,在东北之间变化
温度 7°C
湿度 81%
气压 1031 hPa
能见度10公里或以上
散云层高于1500英尺, 积雨云.
多云层高于3700英尺
阴天层高于4100英尺
小阵雨

METAR: EHBK 260355Z AUTO 02007KT 350V050 9999 -SHRA SCT015CB BKN037 OVC041 07/04 Q1031 REDZ

时间: 05:15 (04:15 UTC)

预报

该预报发布于4小时和56分钟前的23:19 UTC
预报有效从26日的 00点(UTC)到 27日的 06点(UTC)
风速8节,风向北转西北
能見度: 6000
多云层高于800英尺
小雨
短暂存在
从 26日的 00点(UTC)到 26日的 03点(UTC)
能見度: 2500
多云层高于300英尺
散云层高于3000英尺, 积雨云.
雨, 毛毛雨, 阵雨, 轻雾
成为
从 26日的 02点(UTC)到 26日的 05点(UTC)
能见度10公里或以上
散云层高于4500英尺
成为
从 26日的 23点(UTC)到 27日的 02点(UTC)
能見度: 3000
多云层高于300英尺
轻雾
几率 30%
从 27日的 01点(UTC)到 27日的 06点(UTC)
能見度: 0300
层低于100英尺

TAF: EHBK 252319Z 2600/2706 34008KT 6000 -RA BKN008 TEMPO 2600/2603 2500 RADZ SHRA BR BKN003 SCT030CB BECMG 2602/2605 9999 NSW SCT045 BECMG 2623/2702 3000 BR BKN003 PROB30 2701/2706 0300 FG VV000

超过4000个机场的气象观测和天气预报(METAR&TAF报告)。

可查询的气象台以黄色和红色小点在地图上表示。

将鼠标移到小点上方,可查看气象台名称。

然后点击查看天气观测和预报。

如需切换地图:点击带黑十字的绿色按钮放大地图;点击带横线的绿色按钮缩小地图;或者点击绿色箭头查看邻近地区的地图。


METAR-TAF: